sensor_id;sensor_type;location;lat;lon;timestamp;P1;durP1;ratioP1;P2;durP2;ratioP2
10801;SDS011;5453;50.852;7.102;2023-04-03T00:00:17;2.22;;;1.00;;
10801;SDS011;5453;50.852;7.102;2023-04-03T00:02:49;2.22;;;1.13;;
10801;SDS011;5453;50.852;7.102;2023-04-03T00:05:23;2.05;;;1.20;;
10801;SDS011;5453;50.852;7.102;2023-04-03T00:07:56;3.13;;;1.38;;
10801;SDS011;5453;50.852;7.102;2023-04-03T00:10:28;2.28;;;1.10;;
10801;SDS011;5453;50.852;7.102;2023-04-03T00:13:00;1.83;;;1.20;;
10801;SDS011;5453;50.852;7.102;2023-04-03T00:15:33;2.55;;;1.20;;
10801;SDS011;5453;50.852;7.102;2023-04-03T00:18:06;1.95;;;1.10;;
10801;SDS011;5453;50.852;7.102;2023-04-03T00:20:42;3.50;;;1.33;;
10801;SDS011;5453;50.852;7.102;2023-04-03T00:23:15;1.70;;;1.30;;
10801;SDS011;5453;50.852;7.102;2023-04-03T00:25:47;1.50;;;1.33;;
10801;SDS011;5453;50.852;7.102;2023-04-03T00:28:20;1.88;;;1.30;;
10801;SDS011;5453;50.852;7.102;2023-04-03T00:30:53;1.63;;;1.20;;
10801;SDS011;5453;50.852;7.102;2023-04-03T00:33:25;1.95;;;1.30;;
10801;SDS011;5453;50.852;7.102;2023-04-03T00:36:01;4.20;;;1.60;;
10801;SDS011;5453;50.852;7.102;2023-04-03T00:38:39;3.33;;;1.73;;
10801;SDS011;5453;50.852;7.102;2023-04-03T00:41:12;2.25;;;1.70;;
10801;SDS011;5453;50.852;7.102;2023-04-03T00:43:44;3.47;;;1.52;;
10801;SDS011;5453;50.852;7.102;2023-04-03T00:46:16;2.40;;;1.52;;
10801;SDS011;5453;50.852;7.102;2023-04-03T00:48:48;3.00;;;1.60;;
10801;SDS011;5453;50.852;7.102;2023-04-03T00:51:23;3.00;;;1.58;;
10801;SDS011;5453;50.852;7.102;2023-04-03T00:53:58;4.07;;;1.90;;
10801;SDS011;5453;50.852;7.102;2023-04-03T00:56:32;3.15;;;1.40;;
10801;SDS011;5453;50.852;7.102;2023-04-03T00:59:06;4.68;;;2.10;;
10801;SDS011;5453;50.852;7.102;2023-04-03T01:01:42;4.28;;;1.60;;
10801;SDS011;5453;50.852;7.102;2023-04-03T01:04:25;3.00;;;1.50;;
10801;SDS011;5453;50.852;7.102;2023-04-03T01:07:01;2.00;;;1.50;;
10801;SDS011;5453;50.852;7.102;2023-04-03T01:09:36;3.20;;;1.77;;
10801;SDS011;5453;50.852;7.102;2023-04-03T01:12:14;3.35;;;1.73;;
10801;SDS011;5453;50.852;7.102;2023-04-03T01:14:48;5.10;;;2.05;;
10801;SDS011;5453;50.852;7.102;2023-04-03T01:17:28;3.83;;;1.40;;
10801;SDS011;5453;50.852;7.102;2023-04-03T01:23:24;2.92;;;1.83;;
10801;SDS011;5453;50.852;7.102;2023-04-03T01:26:04;6.32;;;1.92;;
10801;SDS011;5453;50.852;7.102;2023-04-03T01:28:36;2.00;;;1.58;;
10801;SDS011;5453;50.852;7.102;2023-04-03T01:31:12;2.45;;;1.63;;
10801;SDS011;5453;50.852;7.102;2023-04-03T01:33:54;3.30;;;1.80;;
10801;SDS011;5453;50.852;7.102;2023-04-03T01:36:27;2.03;;;1.80;;
10801;SDS011;5453;50.852;7.102;2023-04-03T01:39:02;4.05;;;1.80;;
10801;SDS011;5453;50.852;7.102;2023-04-03T01:41:35;2.85;;;2.25;;
10801;SDS011;5453;50.852;7.102;2023-04-03T01:46:56;2.22;;;1.30;;
10801;SDS011;5453;50.852;7.102;2023-04-03T01:49:31;2.70;;;1.88;;
10801;SDS011;5453;50.852;7.102;2023-04-03T01:52:04;2.42;;;1.30;;
10801;SDS011;5453;50.852;7.102;2023-04-03T01:54:36;2.28;;;1.65;;
10801;SDS011;5453;50.852;7.102;2023-04-03T01:57:08;3.80;;;1.48;;
10801;SDS011;5453;50.852;7.102;2023-04-03T01:59:40;2.25;;;1.60;;
10801;SDS011;5453;50.852;7.102;2023-04-03T02:02:13;2.58;;;1.23;;
10801;SDS011;5453;50.852;7.102;2023-04-03T02:04:48;3.28;;;1.45;;
10801;SDS011;5453;50.852;7.102;2023-04-03T02:07:20;4.38;;;1.88;;
10801;SDS011;5453;50.852;7.102;2023-04-03T02:09:52;1.50;;;1.40;;
10801;SDS011;5453;50.852;7.102;2023-04-03T02:12:25;2.85;;;1.33;;
10801;SDS011;5453;50.852;7.102;2023-04-03T02:14:57;2.00;;;1.30;;
10801;SDS011;5453;50.852;7.102;2023-04-03T02:17:30;2.13;;;1.45;;
10801;SDS011;5453;50.852;7.102;2023-04-03T02:20:04;3.33;;;1.45;;
10801;SDS011;5453;50.852;7.102;2023-04-03T02:22:38;2.92;;;1.50;;
10801;SDS011;5453;50.852;7.102;2023-04-03T02:25:11;1.88;;;1.50;;
10801;SDS011;5453;50.852;7.102;2023-04-03T02:27:44;2.78;;;1.40;;
10801;SDS011;5453;50.852;7.102;2023-04-03T02:30:16;2.33;;;1.50;;
10801;SDS011;5453;50.852;7.102;2023-04-03T02:32:49;1.83;;;1.30;;
10801;SDS011;5453;50.852;7.102;2023-04-03T02:35:22;3.30;;;1.92;;
10801;SDS011;5453;50.852;7.102;2023-04-03T02:37:56;5.45;;;1.73;;
10801;SDS011;5453;50.852;7.102;2023-04-03T02:40:28;1.92;;;1.70;;
10801;SDS011;5453;50.852;7.102;2023-04-03T02:43:00;1.77;;;1.27;;
10801;SDS011;5453;50.852;7.102;2023-04-03T02:45:33;2.90;;;1.52;;
10801;SDS011;5453;50.852;7.102;2023-04-03T02:48:05;2.95;;;1.58;;
10801;SDS011;5453;50.852;7.102;2023-04-03T02:50:38;2.45;;;1.92;;
10801;SDS011;5453;50.852;7.102;2023-04-03T02:53:10;2.05;;;1.35;;
10801;SDS011;5453;50.852;7.102;2023-04-03T02:55:42;2.28;;;1.55;;
10801;SDS011;5453;50.852;7.102;2023-04-03T02:58:15;2.08;;;1.50;;
10801;SDS011;5453;50.852;7.102;2023-04-03T03:00:48;2.95;;;1.67;;
10801;SDS011;5453;50.852;7.102;2023-04-03T03:03:20;2.20;;;1.67;;
10801;SDS011;5453;50.852;7.102;2023-04-03T03:06:01;2.17;;;1.48;;
10801;SDS011;5453;50.852;7.102;2023-04-03T03:08:34;2.28;;;1.52;;
10801;SDS011;5453;50.852;7.102;2023-04-03T03:11:07;2.95;;;2.20;;
10801;SDS011;5453;50.852;7.102;2023-04-03T03:13:40;2.53;;;1.50;;
10801;SDS011;5453;50.852;7.102;2023-04-03T03:16:13;1.90;;;1.80;;
10801;SDS011;5453;50.852;7.102;2023-04-03T03:18:45;2.88;;;1.40;;
10801;SDS011;5453;50.852;7.102;2023-04-03T03:21:19;2.97;;;1.60;;
10801;SDS011;5453;50.852;7.102;2023-04-03T03:23:51;2.78;;;1.58;;
10801;SDS011;5453;50.852;7.102;2023-04-03T03:26:23;3.10;;;1.70;;
10801;SDS011;5453;50.852;7.102;2023-04-03T03:28:55;3.03;;;1.55;;
10801;SDS011;5453;50.852;7.102;2023-04-03T03:31:28;3.35;;;1.92;;
10801;SDS011;5453;50.852;7.102;2023-04-03T03:34:01;2.67;;;2.08;;
10801;SDS011;5453;50.852;7.102;2023-04-03T03:36:34;2.83;;;1.80;;
10801;SDS011;5453;50.852;7.102;2023-04-03T03:39:06;3.10;;;2.20;;
10801;SDS011;5453;50.852;7.102;2023-04-03T03:41:39;3.60;;;1.92;;
10801;SDS011;5453;50.852;7.102;2023-04-03T03:44:11;3.00;;;2.10;;
10801;SDS011;5453;50.852;7.102;2023-04-03T03:46:43;3.47;;;2.00;;
10801;SDS011;5453;50.852;7.102;2023-04-03T03:49:16;6.47;;;2.33;;
10801;SDS011;5453;50.852;7.102;2023-04-03T03:51:49;4.88;;;2.30;;
10801;SDS011;5453;50.852;7.102;2023-04-03T03:54:22;5.63;;;2.42;;
10801;SDS011;5453;50.852;7.102;2023-04-03T03:56:55;4.13;;;2.22;;
10801;SDS011;5453;50.852;7.102;2023-04-03T03:59:28;4.28;;;2.45;;
10801;SDS011;5453;50.852;7.102;2023-04-03T04:02:02;3.45;;;2.40;;
10801;SDS011;5453;50.852;7.102;2023-04-03T04:04:34;3.97;;;2.60;;
10801;SDS011;5453;50.852;7.102;2023-04-03T04:07:07;3.58;;;2.17;;
10801;SDS011;5453;50.852;7.102;2023-04-03T04:09:40;3.90;;;2.17;;
10801;SDS011;5453;50.852;7.102;2023-04-03T04:12:13;4.60;;;2.80;;
10801;SDS011;5453;50.852;7.102;2023-04-03T04:14:46;4.28;;;2.22;;
10801;SDS011;5453;50.852;7.102;2023-04-03T04:17:21;4.30;;;2.13;;
10801;SDS011;5453;50.852;7.102;2023-04-03T04:19:54;2.75;;;2.20;;
10801;SDS011;5453;50.852;7.102;2023-04-03T04:22:27;4.70;;;2.28;;
10801;SDS011;5453;50.852;7.102;2023-04-03T04:24:59;3.83;;;2.28;;
10801;SDS011;5453;50.852;7.102;2023-04-03T04:27:32;3.13;;;2.00;;
10801;SDS011;5453;50.852;7.102;2023-04-03T04:30:04;3.35;;;2.03;;
10801;SDS011;5453;50.852;7.102;2023-04-03T04:32:38;4.20;;;2.00;;
10801;SDS011;5453;50.852;7.102;2023-04-03T04:35:10;5.32;;;2.13;;
10801;SDS011;5453;50.852;7.102;2023-04-03T04:37:47;4.60;;;1.90;;
10801;SDS011;5453;50.852;7.102;2023-04-03T04:40:21;2.45;;;1.98;;
10801;SDS011;5453;50.852;7.102;2023-04-03T04:42:53;4.00;;;1.90;;
10801;SDS011;5453;50.852;7.102;2023-04-03T04:45:25;3.05;;;1.83;;
10801;SDS011;5453;50.852;7.102;2023-04-03T04:47:58;6.90;;;1.92;;
10801;SDS011;5453;50.852;7.102;2023-04-03T04:50:30;2.58;;;2.00;;
10801;SDS011;5453;50.852;7.102;2023-04-03T04:53:04;5.53;;;1.75;;
10801;SDS011;5453;50.852;7.102;2023-04-03T04:55:36;5.32;;;2.05;;
10801;SDS011;5453;50.852;7.102;2023-04-03T04:58:08;4.07;;;1.92;;
10801;SDS011;5453;50.852;7.102;2023-04-03T05:00:40;4.88;;;1.90;;
10801;SDS011;5453;50.852;7.102;2023-04-03T05:03:14;2.03;;;1.70;;
10801;SDS011;5453;50.852;7.102;2023-04-03T05:05:47;3.47;;;1.65;;
10801;SDS011;5453;50.852;7.102;2023-04-03T05:08:21;3.22;;;1.85;;
10801;SDS011;5453;50.852;7.102;2023-04-03T05:10:53;3.95;;;1.52;;
10801;SDS011;5453;50.852;7.102;2023-04-03T05:13:25;3.53;;;1.63;;
10801;SDS011;5453;50.852;7.102;2023-04-03T05:16:00;2.78;;;1.65;;
10801;SDS011;5453;50.852;7.102;2023-04-03T05:18:32;2.42;;;1.42;;
10801;SDS011;5453;50.852;7.102;2023-04-03T05:21:11;10.15;;;1.73;;
10801;SDS011;5453;50.852;7.102;2023-04-03T05:23:45;1.63;;;1.20;;
10801;SDS011;5453;50.852;7.102;2023-04-03T05:26:17;3.63;;;1.40;;
10801;SDS011;5453;50.852;7.102;2023-04-03T05:28:52;3.13;;;1.40;;
10801;SDS011;5453;50.852;7.102;2023-04-03T05:31:24;3.92;;;1.30;;
10801;SDS011;5453;50.852;7.102;2023-04-03T05:33:59;3.35;;;1.40;;
10801;SDS011;5453;50.852;7.102;2023-04-03T05:36:34;1.33;;;1.10;;
10801;SDS011;5453;50.852;7.102;2023-04-03T05:39:11;2.95;;;1.17;;
10801;SDS011;5453;50.852;7.102;2023-04-03T05:41:46;2.22;;;1.20;;
10801;SDS011;5453;50.852;7.102;2023-04-03T05:44:19;2.47;;;1.17;;
10801;SDS011;5453;50.852;7.102;2023-04-03T05:46:53;3.03;;;1.42;;
10801;SDS011;5453;50.852;7.102;2023-04-03T05:49:25;4.93;;;1.42;;
10801;SDS011;5453;50.852;7.102;2023-04-03T05:51:58;3.65;;;1.40;;
10801;SDS011;5453;50.852;7.102;2023-04-03T05:54:35;2.55;;;1.70;;
10801;SDS011;5453;50.852;7.102;2023-04-03T05:57:14;2.58;;;1.30;;
10801;SDS011;5453;50.852;7.102;2023-04-03T05:59:48;4.10;;;1.70;;
10801;SDS011;5453;50.852;7.102;2023-04-03T06:02:22;3.15;;;1.60;;
10801;SDS011;5453;50.852;7.102;2023-04-03T06:04:56;2.50;;;1.30;;
10801;SDS011;5453;50.852;7.102;2023-04-03T06:07:28;2.50;;;1.05;;
10801;SDS011;5453;50.852;7.102;2023-04-03T06:10:02;3.38;;;1.30;;
10801;SDS011;5453;50.852;7.102;2023-04-03T06:12:36;2.13;;;1.40;;
10801;SDS011;5453;50.852;7.102;2023-04-03T06:15:09;4.03;;;1.20;;
10801;SDS011;5453;50.852;7.102;2023-04-03T06:17:44;6.50;;;1.45;;
10801;SDS011;5453;50.852;7.102;2023-04-03T06:20:16;2.53;;;1.33;;
10801;SDS011;5453;50.852;7.102;2023-04-03T06:22:49;2.70;;;1.25;;
10801;SDS011;5453;50.852;7.102;2023-04-03T06:25:23;4.07;;;1.27;;
10801;SDS011;5453;50.852;7.102;2023-04-03T06:27:55;1.58;;;0.90;;
10801;SDS011;5453;50.852;7.102;2023-04-03T06:30:27;2.88;;;1.00;;
10801;SDS011;5453;50.852;7.102;2023-04-03T06:32:59;3.28;;;1.13;;
10801;SDS011;5453;50.852;7.102;2023-04-03T06:35:31;3.00;;;1.30;;
10801;SDS011;5453;50.852;7.102;2023-04-03T06:38:05;5.32;;;1.23;;
10801;SDS011;5453;50.852;7.102;2023-04-03T06:40:40;4.07;;;1.13;;
10801;SDS011;5453;50.852;7.102;2023-04-03T06:43:13;2.22;;;0.90;;
10801;SDS011;5453;50.852;7.102;2023-04-03T06:45:46;2.15;;;1.17;;
10801;SDS011;5453;50.852;7.102;2023-04-03T06:48:18;3.00;;;0.82;;
10801;SDS011;5453;50.852;7.102;2023-04-03T06:50:51;3.88;;;0.93;;
10801;SDS011;5453;50.852;7.102;2023-04-03T06:53:24;2.17;;;1.13;;
10801;SDS011;5453;50.852;7.102;2023-04-03T06:55:57;1.73;;;0.80;;
10801;SDS011;5453;50.852;7.102;2023-04-03T06:58:30;1.83;;;0.80;;
10801;SDS011;5453;50.852;7.102;2023-04-03T07:01:02;1.90;;;0.80;;
10801;SDS011;5453;50.852;7.102;2023-04-03T07:03:34;2.50;;;1.23;;
10801;SDS011;5453;50.852;7.102;2023-04-03T07:06:07;2.38;;;0.90;;
10801;SDS011;5453;50.852;7.102;2023-04-03T07:08:43;3.00;;;1.00;;
10801;SDS011;5453;50.852;7.102;2023-04-03T07:11:19;2.53;;;1.15;;
10801;SDS011;5453;50.852;7.102;2023-04-03T07:13:52;3.08;;;0.93;;
10801;SDS011;5453;50.852;7.102;2023-04-03T07:16:25;3.60;;;0.90;;
10801;SDS011;5453;50.852;7.102;2023-04-03T07:18:57;3.10;;;0.95;;
10801;SDS011;5453;50.852;7.102;2023-04-03T07:21:29;3.15;;;1.15;;
10801;SDS011;5453;50.852;7.102;2023-04-03T07:24:01;3.50;;;1.02;;
10801;SDS011;5453;50.852;7.102;2023-04-03T07:26:35;2.53;;;1.17;;
10801;SDS011;5453;50.852;7.102;2023-04-03T07:29:07;2.42;;;1.00;;
10801;SDS011;5453;50.852;7.102;2023-04-03T07:31:39;2.47;;;1.08;;
10801;SDS011;5453;50.852;7.102;2023-04-03T07:34:11;3.17;;;0.90;;
10801;SDS011;5453;50.852;7.102;2023-04-03T07:36:43;1.73;;;0.80;;
10801;SDS011;5453;50.852;7.102;2023-04-03T07:39:16;3.28;;;1.08;;
10801;SDS011;5453;50.852;7.102;2023-04-03T07:41:49;3.53;;;1.30;;
10801;SDS011;5453;50.852;7.102;2023-04-03T07:44:21;3.25;;;1.08;;
10801;SDS011;5453;50.852;7.102;2023-04-03T07:46:53;2.45;;;1.00;;
10801;SDS011;5453;50.852;7.102;2023-04-03T07:49:26;3.58;;;1.30;;
10801;SDS011;5453;50.852;7.102;2023-04-03T07:51:58;2.70;;;0.93;;
10801;SDS011;5453;50.852;7.102;2023-04-03T07:54:30;2.53;;;0.85;;
10801;SDS011;5453;50.852;7.102;2023-04-03T07:57:04;5.07;;;1.30;;
10801;SDS011;5453;50.852;7.102;2023-04-03T07:59:36;4.22;;;0.93;;
10801;SDS011;5453;50.852;7.102;2023-04-03T08:02:09;2.35;;;0.85;;
10801;SDS011;5453;50.852;7.102;2023-04-03T08:04:41;2.92;;;1.00;;
10801;SDS011;5453;50.852;7.102;2023-04-03T08:07:13;1.05;;;0.73;;
10801;SDS011;5453;50.852;7.102;2023-04-03T08:09:46;3.75;;;0.85;;
10801;SDS011;5453;50.852;7.102;2023-04-03T08:12:19;1.55;;;0.95;;
10801;SDS011;5453;50.852;7.102;2023-04-03T08:14:51;2.58;;;0.90;;
10801;SDS011;5453;50.852;7.102;2023-04-03T08:17:23;2.30;;;0.90;;
10801;SDS011;5453;50.852;7.102;2023-04-03T08:19:55;3.28;;;1.05;;
10801;SDS011;5453;50.852;7.102;2023-04-03T08:22:27;4.38;;;1.00;;
10801;SDS011;5453;50.852;7.102;2023-04-03T08:24:59;1.48;;;0.70;;
10801;SDS011;5453;50.852;7.102;2023-04-03T08:27:33;2.42;;;1.27;;
10801;SDS011;5453;50.852;7.102;2023-04-03T08:30:05;3.70;;;0.90;;
10801;SDS011;5453;50.852;7.102;2023-04-03T08:32:39;3.13;;;0.98;;
10801;SDS011;5453;50.852;7.102;2023-04-03T08:35:14;2.03;;;1.30;;
10801;SDS011;5453;50.852;7.102;2023-04-03T08:37:46;3.47;;;1.13;;
10801;SDS011;5453;50.852;7.102;2023-04-03T08:40:18;2.10;;;0.80;;
10801;SDS011;5453;50.852;7.102;2023-04-03T08:42:56;5.13;;;1.27;;
10801;SDS011;5453;50.852;7.102;2023-04-03T08:45:42;3.10;;;0.90;;
10801;SDS011;5453;50.852;7.102;2023-04-03T08:48:19;2.30;;;1.20;;
10801;SDS011;5453;50.852;7.102;2023-04-03T08:50:54;1.55;;;0.73;;
10801;SDS011;5453;50.852;7.102;2023-04-03T08:53:30;2.88;;;0.90;;
10801;SDS011;5453;50.852;7.102;2023-04-03T08:56:06;2.35;;;0.75;;
10801;SDS011;5453;50.852;7.102;2023-04-03T08:58:42;1.77;;;0.70;;
10801;SDS011;5453;50.852;7.102;2023-04-03T09:01:21;2.38;;;1.00;;
10801;SDS011;5453;50.852;7.102;2023-04-03T09:03:57;1.92;;;0.80;;
10801;SDS011;5453;50.852;7.102;2023-04-03T09:06:33;4.43;;;0.90;;
10801;SDS011;5453;50.852;7.102;2023-04-03T09:09:07;4.03;;;0.93;;
10801;SDS011;5453;50.852;7.102;2023-04-03T09:11:47;2.42;;;1.10;;
10801;SDS011;5453;50.852;7.102;2023-04-03T09:14:28;3.25;;;1.17;;
10801;SDS011;5453;50.852;7.102;2023-04-03T09:17:09;2.75;;;0.90;;
10801;SDS011;5453;50.852;7.102;2023-04-03T09:19:49;3.35;;;0.65;;
10801;SDS011;5453;50.852;7.102;2023-04-03T09:22:31;2.50;;;0.90;;
10801;SDS011;5453;50.852;7.102;2023-04-03T09:25:05;3.03;;;0.80;;
10801;SDS011;5453;50.852;7.102;2023-04-03T09:27:44;3.13;;;1.10;;
10801;SDS011;5453;50.852;7.102;2023-04-03T09:30:19;3.45;;;0.90;;
10801;SDS011;5453;50.852;7.102;2023-04-03T09:32:54;1.15;;;0.60;;
10801;SDS011;5453;50.852;7.102;2023-04-03T09:35:29;2.17;;;0.80;;
10801;SDS011;5453;50.852;7.102;2023-04-03T09:38:14;1.85;;;0.80;;
10801;SDS011;5453;50.852;7.102;2023-04-03T09:40:49;4.78;;;0.90;;
10801;SDS011;5453;50.852;7.102;2023-04-03T09:43:36;4.85;;;0.90;;
10801;SDS011;5453;50.852;7.102;2023-04-03T09:46:18;1.40;;;0.75;;
10801;SDS011;5453;50.852;7.102;2023-04-03T09:51:31;1.48;;;0.60;;
10801;SDS011;5453;50.852;7.102;2023-04-03T09:54:23;2.97;;;0.88;;
10801;SDS011;5453;50.852;7.102;2023-04-03T09:57:04;3.03;;;0.70;;
10801;SDS011;5453;50.852;7.102;2023-04-03T09:59:44;1.45;;;0.75;;
10801;SDS011;5453;50.852;7.102;2023-04-03T10:02:32;1.27;;;0.73;;
10801;SDS011;5453;50.852;7.102;2023-04-03T10:08:07;4.00;;;1.00;;
10801;SDS011;5453;50.852;7.102;2023-04-03T10:11:10;3.33;;;0.80;;
10801;SDS011;5453;50.852;7.102;2023-04-03T10:13:49;3.85;;;0.85;;
10801;SDS011;5453;50.852;7.102;2023-04-03T10:16:25;2.53;;;0.73;;
10801;SDS011;5453;50.852;7.102;2023-04-03T10:19:05;1.27;;;0.60;;
10801;SDS011;5453;50.852;7.102;2023-04-03T10:21:54;1.58;;;0.80;;
10801;SDS011;5453;50.852;7.102;2023-04-03T10:24:33;3.00;;;0.93;;
10801;SDS011;5453;50.852;7.102;2023-04-03T10:27:23;3.22;;;0.73;;
10801;SDS011;5453;50.852;7.102;2023-04-03T10:30:19;2.28;;;0.63;;
10801;SDS011;5453;50.852;7.102;2023-04-03T10:33:05;2.28;;;0.75;;
10801;SDS011;5453;50.852;7.102;2023-04-03T10:36:05;1.25;;;0.70;;
10801;SDS011;5453;50.852;7.102;2023-04-03T10:38:48;0.90;;;0.57;;
10801;SDS011;5453;50.852;7.102;2023-04-03T10:41:35;0.82;;;0.60;;
10801;SDS011;5453;50.852;7.102;2023-04-03T10:44:20;1.60;;;0.80;;
10801;SDS011;5453;50.852;7.102;2023-04-03T10:47:07;3.67;;;1.00;;
10801;SDS011;5453;50.852;7.102;2023-04-03T10:49:50;3.92;;;0.75;;
10801;SDS011;5453;50.852;7.102;2023-04-03T10:52:34;4.00;;;0.82;;
10801;SDS011;5453;50.852;7.102;2023-04-03T10:55:19;0.93;;;0.63;;
10801;SDS011;5453;50.852;7.102;2023-04-03T10:58:04;3.90;;;0.80;;
10801;SDS011;5453;50.852;7.102;2023-04-03T11:00:39;2.10;;;0.73;;
10801;SDS011;5453;50.852;7.102;2023-04-03T11:03:14;1.00;;;0.70;;
10801;SDS011;5453;50.852;7.102;2023-04-03T11:08:42;2.17;;;0.93;;
10801;SDS011;5453;50.852;7.102;2023-04-03T11:11:20;2.47;;;0.65;;
10801;SDS011;5453;50.852;7.102;2023-04-03T11:13:58;2.40;;;0.80;;
10801;SDS011;5453;50.852;7.102;2023-04-03T11:16:36;3.22;;;0.93;;
10801;SDS011;5453;50.852;7.102;2023-04-03T11:19:14;1.63;;;0.70;;
10801;SDS011;5453;50.852;7.102;2023-04-03T11:21:56;0.80;;;0.50;;
10801;SDS011;5453;50.852;7.102;2023-04-03T11:24:36;1.00;;;0.63;;
10801;SDS011;5453;50.852;7.102;2023-04-03T11:27:15;1.77;;;0.63;;
10801;SDS011;5453;50.852;7.102;2023-04-03T11:29:52;1.45;;;0.70;;
10801;SDS011;5453;50.852;7.102;2023-04-03T11:32:38;1.35;;;0.50;;
10801;SDS011;5453;50.852;7.102;2023-04-03T11:35:32;1.25;;;0.77;;
10801;SDS011;5453;50.852;7.102;2023-04-03T11:38:06;2.85;;;0.80;;
10801;SDS011;5453;50.852;7.102;2023-04-03T11:40:39;2.08;;;0.60;;
10801;SDS011;5453;50.852;7.102;2023-04-03T11:43:18;1.90;;;0.80;;
10801;SDS011;5453;50.852;7.102;2023-04-03T11:45:57;2.17;;;0.93;;
10801;SDS011;5453;50.852;7.102;2023-04-03T11:51:39;1.35;;;0.65;;
10801;SDS011;5453;50.852;7.102;2023-04-03T11:57:44;1.70;;;0.55;;
10801;SDS011;5453;50.852;7.102;2023-04-03T12:00:51;1.38;;;0.63;;
10801;SDS011;5453;50.852;7.102;2023-04-03T12:06:50;1.85;;;0.70;;
10801;SDS011;5453;50.852;7.102;2023-04-03T12:09:54;1.65;;;0.70;;
10801;SDS011;5453;50.852;7.102;2023-04-03T12:12:32;2.45;;;0.70;;
10801;SDS011;5453;50.852;7.102;2023-04-03T12:15:25;1.42;;;0.60;;
10801;SDS011;5453;50.852;7.102;2023-04-03T12:24:49;2.58;;;0.80;;
10801;SDS011;5453;50.852;7.102;2023-04-03T12:27:24;2.72;;;0.85;;
10801;SDS011;5453;50.852;7.102;2023-04-03T12:30:15;0.68;;;0.43;;
10801;SDS011;5453;50.852;7.102;2023-04-03T12:33:02;1.05;;;0.50;;
10801;SDS011;5453;50.852;7.102;2023-04-03T12:35:57;0.77;;;0.70;;
10801;SDS011;5453;50.852;7.102;2023-04-03T12:38:53;1.52;;;1.00;;
10801;SDS011;5453;50.852;7.102;2023-04-03T12:41:38;0.77;;;0.77;;
10801;SDS011;5453;50.852;7.102;2023-04-03T12:44:35;1.17;;;0.75;;
10801;SDS011;5453;50.852;7.102;2023-04-03T12:47:19;1.48;;;0.63;;
10801;SDS011;5453;50.852;7.102;2023-04-03T12:49:57;0.90;;;0.73;;
10801;SDS011;5453;50.852;7.102;2023-04-03T12:52:33;2.53;;;0.90;;
10801;SDS011;5453;50.852;7.102;2023-04-03T12:55:14;2.35;;;0.75;;
10801;SDS011;5453;50.852;7.102;2023-04-03T12:57:47;2.10;;;0.63;;
10801;SDS011;5453;50.852;7.102;2023-04-03T13:00:27;1.92;;;0.70;;
10801;SDS011;5453;50.852;7.102;2023-04-03T13:03:03;1.83;;;0.70;;
10801;SDS011;5453;50.852;7.102;2023-04-03T13:05:37;1.30;;;0.77;;
10801;SDS011;5453;50.852;7.102;2023-04-03T13:08:12;1.02;;;0.68;;
10801;SDS011;5453;50.852;7.102;2023-04-03T13:10:49;2.38;;;0.90;;
10801;SDS011;5453;50.852;7.102;2023-04-03T13:13:27;2.38;;;0.73;;
10801;SDS011;5453;50.852;7.102;2023-04-03T13:15:59;1.67;;;0.70;;
10801;SDS011;5453;50.852;7.102;2023-04-03T13:18:41;2.33;;;0.75;;
10801;SDS011;5453;50.852;7.102;2023-04-03T13:21:13;2.42;;;0.70;;
10801;SDS011;5453;50.852;7.102;2023-04-03T13:23:51;1.73;;;0.85;;
10801;SDS011;5453;50.852;7.102;2023-04-03T13:26:27;1.80;;;0.80;;
10801;SDS011;5453;50.852;7.102;2023-04-03T13:29:03;2.45;;;0.80;;
10801;SDS011;5453;50.852;7.102;2023-04-03T13:31:38;2.08;;;0.80;;
10801;SDS011;5453;50.852;7.102;2023-04-03T13:34:12;3.30;;;0.82;;
10801;SDS011;5453;50.852;7.102;2023-04-03T13:36:55;4.00;;;1.00;;
10801;SDS011;5453;50.852;7.102;2023-04-03T13:39:30;1.00;;;0.55;;
10801;SDS011;5453;50.852;7.102;2023-04-03T13:42:15;1.63;;;0.85;;
10801;SDS011;5453;50.852;7.102;2023-04-03T13:45:06;0.85;;;0.70;;
10801;SDS011;5453;50.852;7.102;2023-04-03T13:47:48;1.15;;;0.63;;
10801;SDS011;5453;50.852;7.102;2023-04-03T13:50:22;2.38;;;0.98;;
10801;SDS011;5453;50.852;7.102;2023-04-03T13:52:59;3.25;;;0.95;;
10801;SDS011;5453;50.852;7.102;2023-04-03T13:55:35;3.50;;;0.95;;
10801;SDS011;5453;50.852;7.102;2023-04-03T13:58:26;1.02;;;0.70;;
10801;SDS011;5453;50.852;7.102;2023-04-03T14:01:00;3.03;;;0.85;;
10801;SDS011;5453;50.852;7.102;2023-04-03T14:03:41;2.20;;;0.85;;
10801;SDS011;5453;50.852;7.102;2023-04-03T14:06:16;1.42;;;0.98;;
10801;SDS011;5453;50.852;7.102;2023-04-03T14:08:49;2.10;;;1.00;;
10801;SDS011;5453;50.852;7.102;2023-04-03T14:11:24;1.02;;;0.52;;
10801;SDS011;5453;50.852;7.102;2023-04-03T14:14:01;2.58;;;1.25;;
10801;SDS011;5453;50.852;7.102;2023-04-03T14:16:42;1.42;;;0.80;;
10801;SDS011;5453;50.852;7.102;2023-04-03T14:19:19;1.33;;;0.80;;
10801;SDS011;5453;50.852;7.102;2023-04-03T14:21:54;2.38;;;0.88;;
10801;SDS011;5453;50.852;7.102;2023-04-03T14:24:28;1.20;;;0.80;;
10801;SDS011;5453;50.852;7.102;2023-04-03T14:27:01;2.05;;;0.73;;
10801;SDS011;5453;50.852;7.102;2023-04-03T14:29:34;1.35;;;0.70;;
10801;SDS011;5453;50.852;7.102;2023-04-03T14:32:06;1.38;;;0.80;;
10801;SDS011;5453;50.852;7.102;2023-04-03T14:34:38;3.38;;;0.98;;
10801;SDS011;5453;50.852;7.102;2023-04-03T14:37:12;1.45;;;0.70;;
10801;SDS011;5453;50.852;7.102;2023-04-03T14:39:46;1.60;;;0.90;;
10801;SDS011;5453;50.852;7.102;2023-04-03T14:42:22;1.83;;;1.00;;
10801;SDS011;5453;50.852;7.102;2023-04-03T14:44:56;1.58;;;0.80;;
10801;SDS011;5453;50.852;7.102;2023-04-03T14:47:29;2.45;;;0.90;;
10801;SDS011;5453;50.852;7.102;2023-04-03T14:50:04;0.80;;;0.80;;
10801;SDS011;5453;50.852;7.102;2023-04-03T14:52:39;2.33;;;0.90;;
10801;SDS011;5453;50.852;7.102;2023-04-03T14:55:16;4.05;;;0.80;;
10801;SDS011;5453;50.852;7.102;2023-04-03T14:57:51;2.00;;;0.88;;
10801;SDS011;5453;50.852;7.102;2023-04-03T15:00:25;1.38;;;1.00;;
10801;SDS011;5453;50.852;7.102;2023-04-03T15:02:57;3.60;;;0.98;;
10801;SDS011;5453;50.852;7.102;2023-04-03T15:05:29;2.03;;;0.90;;
10801;SDS011;5453;50.852;7.102;2023-04-03T15:08:01;2.97;;;1.00;;
10801;SDS011;5453;50.852;7.102;2023-04-03T15:10:34;2.03;;;1.00;;
10801;SDS011;5453;50.852;7.102;2023-04-03T15:13:07;1.75;;;0.73;;
10801;SDS011;5453;50.852;7.102;2023-04-03T15:15:42;1.83;;;1.00;;
10801;SDS011;5453;50.852;7.102;2023-04-03T15:18:15;2.97;;;0.90;;
10801;SDS011;5453;50.852;7.102;2023-04-03T15:20:51;1.92;;;1.13;;
10801;SDS011;5453;50.852;7.102;2023-04-03T15:23:23;1.58;;;1.05;;
10801;SDS011;5453;50.852;7.102;2023-04-03T15:25:56;1.88;;;0.85;;
10801;SDS011;5453;50.852;7.102;2023-04-03T15:28:32;2.03;;;0.70;;
10801;SDS011;5453;50.852;7.102;2023-04-03T15:31:06;3.65;;;1.00;;
10801;SDS011;5453;50.852;7.102;2023-04-03T15:33:39;4.60;;;0.80;;
10801;SDS011;5453;50.852;7.102;2023-04-03T15:36:11;2.92;;;0.88;;
10801;SDS011;5453;50.852;7.102;2023-04-03T15:38:43;1.33;;;0.85;;
10801;SDS011;5453;50.852;7.102;2023-04-03T15:41:16;2.58;;;1.05;;
10801;SDS011;5453;50.852;7.102;2023-04-03T15:43:49;1.50;;;0.80;;
10801;SDS011;5453;50.852;7.102;2023-04-03T15:46:21;1.50;;;0.77;;
10801;SDS011;5453;50.852;7.102;2023-04-03T15:48:53;1.65;;;0.80;;
10801;SDS011;5453;50.852;7.102;2023-04-03T15:51:25;1.77;;;0.80;;
10801;SDS011;5453;50.852;7.102;2023-04-03T15:53:58;2.75;;;1.00;;
10801;SDS011;5453;50.852;7.102;2023-04-03T15:56:30;1.77;;;0.70;;
10801;SDS011;5453;50.852;7.102;2023-04-03T15:59:03;2.60;;;0.80;;
10801;SDS011;5453;50.852;7.102;2023-04-03T16:01:35;5.10;;;1.02;;
10801;SDS011;5453;50.852;7.102;2023-04-03T16:04:09;3.05;;;0.80;;
10801;SDS011;5453;50.852;7.102;2023-04-03T16:06:41;2.00;;;0.95;;
10801;SDS011;5453;50.852;7.102;2023-04-03T16:09:14;2.53;;;0.77;;
10801;SDS011;5453;50.852;7.102;2023-04-03T16:11:46;2.13;;;0.98;;
10801;SDS011;5453;50.852;7.102;2023-04-03T16:14:19;1.63;;;0.93;;
10801;SDS011;5453;50.852;7.102;2023-04-03T16:16:51;1.92;;;0.65;;
10801;SDS011;5453;50.852;7.102;2023-04-03T16:19:23;1.65;;;0.80;;
10801;SDS011;5453;50.852;7.102;2023-04-03T16:21:56;1.30;;;0.63;;